createdAt,value
2023-05-22T00:00:18.476Z,235.90
2023-05-22T00:01:18.492Z,239.93
2023-05-22T00:02:18.566Z,241.06
2023-05-22T00:03:18.583Z,241.16
2023-05-22T00:04:18.515Z,242.67
2023-05-22T00:05:18.711Z,245.11
2023-05-22T00:06:18.584Z,247.55
2023-05-22T00:07:18.605Z,250.45
2023-05-22T00:08:18.616Z,248.70
2023-05-22T00:09:18.725Z,247.92
2023-05-22T00:10:18.646Z,249.54
2023-05-22T00:11:18.650Z,247.86
2023-05-22T00:12:18.687Z,248.32
2023-05-22T00:13:18.674Z,247.13
2023-05-22T00:14:18.769Z,249.81
2023-05-22T00:15:18.760Z,247.07
2023-05-22T00:16:18.737Z,250.00
2023-05-22T00:17:18.940Z,249.05
2023-05-22T00:18:18.792Z,250.00
2023-05-22T00:19:18.906Z,248.07
2023-05-22T00:20:18.825Z,248.61
2023-05-22T00:21:18.878Z,246.38
2023-05-22T00:22:18.874Z,248.70
2023-05-22T00:23:18.989Z,244.42
2023-05-22T00:24:18.957Z,241.38
2023-05-22T00:25:18.960Z,242.83
2023-05-22T00:26:18.997Z,243.53
2023-05-22T00:27:19.075Z,241.65
2023-05-22T00:28:19.076Z,243.24
2023-05-22T00:29:19.123Z,243.95
2023-05-22T00:30:19.141Z,250.00
2023-05-22T00:31:19.159Z,249.52
2023-05-22T00:32:19.185Z,247.05
2023-05-22T00:33:19.226Z,246.90
2023-05-22T00:34:19.306Z,247.42
2023-05-22T00:35:19.299Z,247.79
2023-05-22T00:36:19.319Z,246.68
2023-05-22T00:37:19.341Z,248.77
2023-05-22T00:38:19.395Z,248.29
2023-05-22T00:39:19.434Z,248.70
2023-05-22T00:40:19.428Z,249.14
2023-05-22T00:41:19.497Z,247.44
2023-05-22T00:42:19.546Z,247.77
2023-05-22T00:43:19.542Z,246.57
2023-05-22T00:44:19.580Z,248.03
2023-05-22T00:45:19.601Z,247.26
2023-05-22T00:46:19.703Z,249.89
2023-05-22T00:47:19.693Z,249.82
2023-05-22T00:48:19.706Z,249.37
2023-05-22T00:49:19.705Z,247.82
2023-05-22T00:50:19.749Z,247.12
2023-05-22T00:51:19.747Z,248.29
2023-05-22T00:52:19.817Z,246.74
2023-05-22T00:53:19.806Z,247.65
2023-05-22T00:54:19.878Z,246.98
2023-05-22T00:55:19.911Z,249.58
2023-05-22T00:56:19.992Z,247.53
2023-05-22T00:57:19.948Z,247.82
2023-05-22T00:58:19.958Z,249.52
2023-05-22T00:59:19.984Z,248.06
2023-05-22T01:00:20.032Z,245.93
2023-05-22T01:01:20.081Z,248.62
2023-05-22T01:02:20.073Z,247.49
2023-05-22T01:03:20.304Z,249.09
2023-05-22T01:04:20.194Z,247.91
2023-05-22T01:05:20.179Z,245.49
2023-05-22T01:06:20.173Z,246.87
2023-05-22T01:07:20.183Z,247.79
2023-05-22T01:08:20.232Z,247.47
2023-05-22T01:09:20.257Z,248.26
2023-05-22T01:10:20.264Z,248.18
2023-05-22T01:11:20.315Z,249.33
2023-05-22T01:12:20.315Z,246.70
2023-05-22T01:13:20.382Z,248.58
2023-05-22T01:14:20.381Z,250.00
2023-05-22T01:15:20.380Z,248.30
2023-05-22T01:16:20.544Z,250.10
2023-05-22T01:17:20.457Z,250.00
2023-05-22T01:18:20.460Z,249.43
2023-05-22T01:19:20.468Z,250.13
2023-05-22T01:20:20.470Z,249.42
2023-05-22T01:21:20.510Z,249.91
2023-05-22T01:22:20.535Z,249.43
2023-05-22T01:23:20.554Z,246.90
2023-05-22T01:24:20.545Z,245.02
2023-05-22T01:25:20.577Z,243.61
2023-05-22T01:26:20.615Z,243.63
2023-05-22T01:27:20.640Z,245.61
2023-05-22T01:28:20.657Z,246.36
2023-05-22T01:29:20.650Z,249.13
2023-05-22T01:30:20.651Z,248.80
2023-05-22T01:31:20.649Z,247.91
2023-05-22T01:32:20.633Z,249.94
2023-05-22T01:33:20.749Z,248.78
2023-05-22T01:34:20.644Z,248.11
2023-05-22T01:35:20.669Z,249.42
2023-05-22T01:36:20.643Z,248.47
2023-05-22T01:37:20.639Z,247.09
2023-05-22T01:38:20.629Z,249.45
2023-05-22T01:39:20.632Z,249.12
2023-05-22T01:40:20.619Z,247.31
2023-05-22T01:41:20.606Z,249.60
2023-05-22T01:42:20.598Z,249.31
2023-05-22T01:43:20.607Z,250.00
2023-05-22T01:44:20.649Z,249.19
2023-05-22T01:45:20.635Z,245.73
2023-05-22T01:46:20.719Z,236.14
2023-05-22T01:47:20.624Z,230.87
2023-05-22T01:48:20.641Z,231.88
2023-05-22T01:49:20.674Z,233.68
2023-05-22T01:50:20.643Z,235.19
2023-05-22T01:51:20.626Z,239.87
2023-05-22T01:52:20.652Z,241.49
2023-05-22T01:53:20.687Z,243.87
2023-05-22T01:54:20.671Z,238.93
2023-05-22T01:55:20.695Z,236.06
2023-05-22T01:56:20.709Z,238.94
2023-05-22T01:57:20.702Z,242.72
2023-05-22T01:58:20.715Z,239.89
2023-05-22T01:59:20.704Z,238.23
2023-05-22T02:00:20.717Z,238.22
2023-05-22T02:01:20.834Z,243.48
2023-05-22T02:02:20.747Z,245.73
2023-05-22T02:03:20.849Z,247.95
2023-05-22T02:04:20.732Z,246.29
2023-05-22T02:05:20.765Z,247.64
2023-05-22T02:06:20.765Z,248.48
2023-05-22T02:07:20.777Z,249.83
2023-05-22T02:08:20.833Z,246.10
2023-05-22T02:09:20.854Z,237.56
2023-05-22T02:10:20.866Z,234.46
2023-05-22T02:11:20.933Z,236.35
2023-05-22T02:12:20.914Z,240.28
2023-05-22T02:13:20.982Z,239.19
2023-05-22T02:14:20.968Z,243.30
2023-05-22T02:15:21.035Z,248.65
2023-05-22T02:16:21.075Z,247.53
2023-05-22T02:17:21.057Z,247.85
2023-05-22T02:18:21.112Z,245.89
2023-05-22T02:19:21.180Z,244.01
2023-05-22T02:20:21.163Z,247.05
2023-05-22T02:21:21.249Z,249.10
2023-05-22T02:22:21.282Z,247.70
2023-05-22T02:23:21.320Z,245.62
2023-05-22T02:24:21.387Z,249.16
2023-05-22T02:25:21.462Z,247.82
2023-05-22T02:26:21.491Z,247.62
2023-05-22T02:27:21.529Z,244.89
2023-05-22T02:28:21.565Z,245.22
2023-05-22T02:29:21.615Z,240.11
2023-05-22T02:30:21.680Z,237.95
2023-05-22T02:31:21.780Z,241.31
2023-05-22T02:32:21.795Z,245.08
2023-05-22T02:33:21.944Z,246.42
2023-05-22T02:34:21.905Z,246.52
2023-05-22T02:35:21.941Z,249.30
2023-05-22T02:36:21.967Z,246.99
2023-05-22T02:37:22.026Z,247.21
2023-05-22T02:38:22.085Z,247.73
2023-05-22T02:39:22.159Z,249.12
2023-05-22T02:40:22.248Z,249.34
2023-05-22T02:41:22.293Z,247.97
2023-05-22T02:42:22.344Z,247.83
2023-05-22T02:43:22.428Z,247.70
2023-05-22T02:44:22.470Z,249.47
2023-05-22T02:45:22.540Z,247.04
2023-05-22T02:46:22.698Z,246.18
2023-05-22T02:47:22.664Z,245.65
2023-05-22T02:48:22.740Z,244.80
2023-05-22T02:49:22.782Z,239.29
2023-05-22T02:50:22.836Z,243.07
2023-05-22T02:51:22.921Z,246.06
2023-05-22T02:52:22.960Z,244.48
2023-05-22T02:53:23.015Z,244.78
2023-05-22T02:54:23.061Z,243.31
2023-05-22T02:55:23.194Z,244.04
2023-05-22T02:56:23.204Z,243.94
2023-05-22T02:57:23.285Z,243.60
2023-05-22T02:58:23.345Z,245.31
2023-05-22T02:59:23.406Z,244.15
2023-05-22T03:00:23.458Z,245.54
2023-05-22T03:01:23.587Z,247.10
2023-05-22T03:02:23.690Z,246.85
2023-05-22T03:03:23.703Z,246.27
2023-05-22T03:04:23.715Z,245.03
2023-05-22T03:05:23.786Z,245.79
2023-05-22T03:06:23.828Z,240.34
2023-05-22T03:07:23.890Z,241.90
2023-05-22T03:08:23.965Z,241.21
2023-05-22T03:09:23.993Z,238.11
2023-05-22T03:10:24.083Z,239.70
2023-05-22T03:11:24.147Z,240.91
2023-05-22T03:12:24.207Z,240.20
2023-05-22T03:13:24.293Z,243.05
2023-05-22T03:14:24.335Z,243.05
2023-05-22T03:15:24.433Z,245.19
2023-05-22T03:16:24.574Z,244.53
2023-05-22T03:17:24.557Z,242.82
2023-05-22T03:18:27.197Z,243.27
2023-05-22T03:19:24.840Z,245.05
2023-05-22T03:20:24.546Z,242.38
2023-05-22T03:21:24.573Z,241.52
2023-05-22T03:22:24.550Z,241.37
2023-05-22T03:23:24.551Z,242.03
2023-05-22T03:24:24.543Z,236.60
2023-05-22T03:25:24.526Z,238.14
2023-05-22T03:26:24.522Z,242.13
2023-05-22T03:27:24.542Z,241.43
2023-05-22T03:28:24.542Z,237.75
2023-05-22T03:29:24.500Z,234.92
2023-05-22T03:30:24.539Z,233.04
2023-05-22T03:31:24.494Z,235.27
2023-05-22T03:32:24.545Z,237.82
2023-05-22T03:33:24.570Z,241.53
2023-05-22T03:34:24.466Z,244.75
2023-05-22T03:35:24.502Z,244.28
2023-05-22T03:36:24.451Z,243.51
2023-05-22T03:37:24.466Z,242.67
2023-05-22T03:38:24.456Z,245.97
2023-05-22T03:39:24.452Z,245.40
2023-05-22T03:40:24.449Z,244.99
2023-05-22T03:41:24.436Z,244.36
2023-05-22T03:42:24.450Z,244.97
2023-05-22T03:43:24.435Z,245.22
2023-05-22T03:44:24.418Z,246.14
2023-05-22T03:45:24.408Z,243.01
2023-05-22T03:46:24.480Z,240.19
2023-05-22T03:47:24.416Z,238.43
2023-05-22T03:48:24.593Z,240.54
2023-05-22T03:49:24.374Z,239.96
2023-05-22T03:50:24.346Z,239.81
2023-05-22T03:51:24.353Z,238.84
2023-05-22T03:52:24.407Z,237.69
2023-05-22T03:53:24.441Z,238.72
2023-05-22T03:54:24.545Z,243.09
2023-05-22T03:55:24.550Z,242.62
2023-05-22T03:56:24.543Z,239.88
2023-05-22T03:57:24.614Z,237.55
2023-05-22T03:58:24.637Z,239.29
2023-05-22T03:59:24.662Z,238.72
2023-05-22T04:00:26.797Z,235.02
2023-05-22T04:01:24.710Z,234.33
2023-05-22T04:02:24.790Z,235.40
2023-05-22T04:03:24.812Z,236.02
2023-05-22T04:04:24.783Z,235.90
2023-05-22T04:05:24.813Z,234.64
2023-05-22T04:06:24.843Z,234.33
2023-05-22T04:07:24.852Z,233.67
2023-05-22T04:08:24.876Z,234.88
2023-05-22T04:09:24.891Z,235.52
2023-05-22T04:10:24.940Z,234.07
2023-05-22T04:11:24.982Z,235.39
2023-05-22T04:12:25.006Z,235.66
2023-05-22T04:13:25.035Z,236.72
2023-05-22T04:14:25.105Z,238.77
2023-05-22T04:15:25.121Z,241.07
2023-05-22T04:16:25.275Z,237.95
2023-05-22T04:17:25.164Z,237.19
2023-05-22T04:18:25.147Z,238.05
2023-05-22T04:19:25.229Z,236.80
2023-05-22T04:20:25.167Z,236.19
2023-05-22T04:21:25.185Z,237.26
2023-05-22T04:22:25.171Z,238.70
2023-05-22T04:23:25.168Z,235.78
2023-05-22T04:24:25.149Z,234.25
2023-05-22T04:25:25.138Z,233.72
2023-05-22T04:26:25.153Z,233.27
2023-05-22T04:27:25.143Z,233.83
2023-05-22T04:28:25.146Z,233.63
2023-05-22T04:29:25.178Z,233.69
2023-05-22T04:30:25.166Z,232.72
2023-05-22T04:31:25.223Z,233.17
2023-05-22T04:32:25.249Z,232.62
2023-05-22T04:33:25.165Z,229.28
2023-05-22T04:34:25.175Z,230.78
2023-05-22T04:35:25.169Z,229.08
2023-05-22T04:36:25.132Z,229.51
2023-05-22T04:37:25.138Z,228.61
2023-05-22T04:38:25.151Z,227.47
2023-05-22T04:39:25.137Z,229.23
2023-05-22T04:40:25.117Z,228.33
2023-05-22T04:41:25.138Z,228.39
2023-05-22T04:42:25.154Z,225.94
2023-05-22T04:43:25.149Z,223.78
2023-05-22T04:44:25.159Z,227.03
2023-05-22T04:45:25.119Z,226.35
2023-05-22T04:46:25.158Z,230.21
2023-05-22T04:47:25.169Z,229.76
2023-05-22T04:48:25.117Z,228.61
2023-05-22T04:49:25.126Z,227.37
2023-05-22T04:50:25.105Z,225.35
2023-05-22T04:51:25.094Z,224.67
2023-05-22T04:52:25.109Z,224.93
2023-05-22T04:53:25.101Z,226.71
2023-05-22T04:54:25.101Z,225.04
2023-05-22T04:55:25.096Z,227.88
2023-05-22T04:56:35.571Z,227.39
2023-05-22T04:57:26.062Z,227.50
2023-05-22T04:58:25.099Z,227.94
2023-05-22T04:59:25.056Z,228.68
2023-05-22T05:00:32.126Z,228.37
2023-05-22T05:01:25.111Z,227.73
2023-05-22T05:02:25.169Z,228.24
2023-05-22T05:03:25.096Z,229.74
2023-05-22T05:04:25.026Z,232.86
2023-05-22T05:05:25.016Z,238.30
2023-05-22T05:06:25.012Z,238.85
2023-05-22T05:07:24.996Z,240.10
2023-05-22T05:08:25.023Z,242.19
2023-05-22T05:09:24.990Z,243.15
2023-05-22T05:10:24.984Z,243.17
2023-05-22T05:11:25.017Z,243.42
2023-05-22T05:12:24.959Z,243.71
2023-05-22T05:13:24.982Z,243.49
2023-05-22T05:14:24.974Z,242.26
2023-05-22T05:15:24.970Z,242.61
2023-05-22T05:16:25.050Z,242.69
2023-05-22T05:17:24.956Z,241.43
2023-05-22T05:18:24.965Z,240.06
2023-05-22T05:19:25.032Z,238.45
2023-05-22T05:20:24.996Z,239.53
2023-05-22T05:21:24.928Z,237.58
2023-05-22T05:22:24.918Z,240.01
2023-05-22T05:23:24.927Z,242.34
2023-05-22T05:24:24.914Z,242.57
2023-05-22T05:25:24.915Z,242.51
2023-05-22T05:26:24.874Z,240.70
2023-05-22T05:27:24.880Z,240.84
2023-05-22T05:28:24.883Z,240.64
2023-05-22T05:29:24.980Z,239.14
2023-05-22T05:30:24.884Z,238.04
2023-05-22T05:31:24.931Z,237.88
2023-05-22T05:32:24.956Z,239.21
2023-05-22T05:33:24.881Z,240.05
2023-05-22T05:34:25.150Z,240.88
2023-05-22T05:35:24.855Z,251.46
2023-05-22T05:36:24.816Z,260.81
2023-05-22T05:37:24.847Z,254.51
2023-05-22T05:38:24.842Z,250.56
2023-05-22T05:39:24.823Z,249.45
2023-05-22T05:40:24.805Z,250.00
2023-05-22T05:41:24.901Z,247.57
2023-05-22T05:42:24.795Z,240.14
2023-05-22T05:43:24.801Z,242.57
2023-05-22T05:44:24.783Z,246.23
2023-05-22T05:45:31.768Z,250.00
2023-05-22T05:46:24.805Z,250.77
2023-05-22T05:47:24.803Z,251.81
2023-05-22T05:48:24.767Z,252.88
2023-05-22T05:49:25.150Z,255.56
2023-05-22T05:50:24.736Z,248.59
2023-05-22T05:51:24.732Z,244.46
2023-05-22T05:52:24.778Z,239.12
2023-05-22T05:53:24.730Z,238.37
2023-05-22T05:54:24.753Z,235.27
2023-05-22T05:55:24.743Z,234.24
2023-05-22T05:56:24.722Z,232.38
2023-05-22T05:57:24.726Z,224.51
2023-05-22T05:58:24.797Z,222.80
2023-05-22T05:59:24.748Z,223.38
2023-05-22T06:00:24.801Z,222.58
2023-05-22T06:01:24.745Z,237.45
2023-05-22T06:02:24.878Z,239.17
2023-05-22T06:03:24.783Z,245.64
2023-05-22T06:04:24.706Z,250.77
2023-05-22T06:05:24.740Z,250.00
2023-05-22T06:06:24.666Z,250.00
2023-05-22T06:07:24.688Z,250.00
2023-05-22T06:08:24.654Z,250.00
2023-05-22T06:09:24.650Z,249.57
2023-05-22T06:10:24.680Z,247.14
2023-05-22T06:11:24.607Z,250.00
2023-05-22T06:12:24.653Z,249.71
2023-05-22T06:13:24.688Z,249.54
2023-05-22T06:14:24.667Z,249.92
2023-05-22T06:15:24.719Z,249.78
2023-05-22T06:16:24.790Z,248.27
2023-05-22T06:17:24.750Z,249.28
2023-05-22T06:18:24.709Z,250.03
2023-05-22T06:19:24.866Z,244.70
2023-05-22T06:20:24.713Z,247.02
2023-05-22T06:21:24.720Z,249.03
2023-05-22T06:22:24.743Z,250.00
2023-05-22T06:23:24.727Z,250.00
2023-05-22T06:24:24.736Z,248.82
2023-05-22T06:25:24.740Z,250.00
2023-05-22T06:26:24.721Z,250.31
2023-05-22T06:27:24.733Z,249.72
2023-05-22T06:28:24.719Z,247.97
2023-05-22T06:29:25.178Z,248.12
2023-05-22T06:30:39.085Z,250.00
2023-05-22T06:31:25.734Z,250.16
2023-05-22T06:32:24.833Z,250.72
2023-05-22T06:33:24.830Z,252.73
2023-05-22T06:34:25.288Z,256.63
2023-05-22T06:35:24.711Z,262.46
2023-05-22T06:36:24.754Z,253.11
2023-05-22T06:37:24.706Z,249.55
2023-05-22T06:38:24.699Z,247.08
2023-05-22T06:39:25.243Z,244.34
2023-05-22T06:40:24.702Z,241.56
2023-05-22T06:41:24.705Z,231.27
2023-05-22T06:42:24.678Z,212.52
2023-05-22T06:43:24.717Z,207.99
2023-05-22T06:44:24.795Z,198.35
2023-05-22T06:45:24.650Z,187.90
2023-05-22T06:46:26.085Z,183.71
2023-05-22T06:47:24.750Z,184.76
2023-05-22T06:48:24.809Z,178.99
2023-05-22T06:49:25.269Z,169.04
2023-05-22T06:50:24.885Z,159.22
2023-05-22T06:51:24.897Z,162.11
2023-05-22T06:52:24.892Z,157.25
2023-05-22T06:53:24.908Z,152.26
2023-05-22T06:54:24.937Z,150.26
2023-05-22T06:55:24.999Z,152.95
2023-05-22T06:56:25.042Z,156.29
2023-05-22T06:57:25.030Z,161.62
2023-05-22T06:58:25.040Z,163.82
2023-05-22T06:59:25.236Z,163.27
2023-05-22T07:00:25.079Z,164.74
2023-05-22T07:01:25.265Z,165.02
2023-05-22T07:02:25.163Z,164.90
2023-05-22T07:03:25.144Z,160.12
2023-05-22T07:04:25.766Z,154.63
2023-05-22T07:05:25.248Z,147.14
2023-05-22T07:06:25.298Z,136.72
2023-05-22T07:07:25.278Z,133.36
2023-05-22T07:08:25.289Z,131.75
2023-05-22T07:09:25.317Z,130.04
2023-05-22T07:10:25.314Z,129.70
2023-05-22T07:11:25.376Z,134.78
2023-05-22T07:12:25.378Z,135.53
2023-05-22T07:13:25.389Z,137.06
2023-05-22T07:14:25.470Z,137.39
2023-05-22T07:15:25.689Z,135.84
2023-05-22T07:16:25.474Z,130.65
2023-05-22T07:17:25.556Z,127.37
2023-05-22T07:18:25.466Z,126.06
2023-05-22T07:19:25.511Z,128.49
2023-05-22T07:20:25.464Z,130.65
2023-05-22T07:21:25.435Z,132.50
2023-05-22T07:22:25.514Z,131.05
2023-05-22T07:23:26.334Z,132.89
2023-05-22T07:24:25.505Z,136.13
2023-05-22T07:25:25.532Z,142.66
2023-05-22T07:26:25.549Z,140.46
2023-05-22T07:27:25.583Z,137.12
2023-05-22T07:28:25.621Z,134.88
2023-05-22T07:29:25.624Z,134.89
2023-05-22T07:30:25.636Z,131.57
2023-05-22T07:31:25.660Z,136.45
2023-05-22T07:32:25.659Z,139.64
2023-05-22T07:33:25.680Z,145.67
2023-05-22T07:34:26.601Z,152.17
2023-05-22T07:35:25.781Z,149.56
2023-05-22T07:36:25.807Z,151.97
2023-05-22T07:37:25.901Z,157.49
2023-05-22T07:38:25.953Z,160.05
2023-05-22T07:39:25.968Z,164.85
2023-05-22T07:40:36.195Z,168.04
2023-05-22T07:41:27.006Z,164.69
2023-05-22T07:42:26.015Z,157.07
2023-05-22T07:43:25.998Z,154.76
2023-05-22T07:44:25.995Z,161.95
2023-05-22T07:45:26.215Z,168.51
2023-05-22T07:46:25.988Z,154.51
2023-05-22T07:47:26.017Z,140.82
2023-05-22T07:48:25.971Z,130.80
2023-05-22T07:49:25.955Z,131.19
2023-05-22T07:50:26.233Z,118.90
2023-05-22T07:51:26.053Z,110.93
2023-05-22T07:52:26.092Z,112.60
2023-05-22T07:53:26.254Z,113.33
2023-05-22T07:54:26.208Z,114.87
2023-05-22T07:55:26.258Z,122.73
2023-05-22T07:56:26.368Z,125.53
2023-05-22T07:57:26.284Z,125.14
2023-05-22T07:58:26.364Z,128.26
2023-05-22T07:59:26.361Z,134.31
2023-05-22T08:00:26.737Z,132.39
2023-05-22T08:01:26.384Z,111.77
2023-05-22T08:02:26.554Z,96.49
2023-05-22T08:03:26.605Z,83.70
2023-05-22T08:04:26.568Z,78.44
2023-05-22T08:05:26.777Z,80.68
2023-05-22T08:06:26.668Z,91.65
2023-05-22T08:07:31.388Z,99.32
2023-05-22T08:08:26.682Z,99.65
2023-05-22T08:09:26.735Z,100.59
2023-05-22T08:10:33.297Z,103.25
2023-05-22T08:11:27.638Z,99.80
2023-05-22T08:12:26.629Z,99.46
2023-05-22T08:13:26.600Z,85.75
2023-05-22T08:14:26.582Z,79.81
2023-05-22T08:15:26.698Z,71.50
2023-05-22T08:16:26.684Z,69.92
2023-05-22T08:17:26.577Z,74.75
2023-05-22T08:18:26.583Z,75.28
2023-05-22T08:19:26.687Z,79.97
2023-05-22T08:20:26.800Z,84.05
2023-05-22T08:21:26.601Z,81.37
2023-05-22T08:22:26.576Z,75.01
2023-05-22T08:23:26.537Z,68.92
2023-05-22T08:24:26.532Z,76.25
2023-05-22T08:25:26.536Z,76.99
2023-05-22T08:26:26.523Z,73.01
2023-05-22T08:27:26.515Z,75.22
2023-05-22T08:28:26.515Z,76.98
2023-05-22T08:29:26.556Z,83.99
2023-05-22T08:30:26.544Z,96.97
2023-05-22T08:31:26.565Z,105.53
2023-05-22T08:32:28.092Z,113.75
2023-05-22T08:33:26.800Z,109.05
2023-05-22T08:34:26.741Z,113.17
2023-05-22T08:35:27.217Z,119.76
2023-05-22T08:36:26.754Z,117.12
2023-05-22T08:37:26.830Z,117.47
2023-05-22T08:38:26.851Z,119.21
2023-05-22T08:39:26.899Z,117.92
2023-05-22T08:40:26.938Z,113.70
2023-05-22T08:41:27.262Z,101.27
2023-05-22T08:42:27.035Z,93.74
2023-05-22T08:43:27.123Z,90.55
2023-05-22T08:44:27.201Z,87.66
2023-05-22T08:45:27.258Z,72.34
2023-05-22T08:46:27.306Z,64.14
2023-05-22T08:47:27.384Z,52.60
2023-05-22T08:48:27.420Z,41.07
2023-05-22T08:49:27.541Z,41.76
2023-05-22T08:50:27.758Z,48.79
2023-05-22T08:51:27.626Z,40.71
2023-05-22T08:52:27.700Z,55.13
2023-05-22T08:53:27.764Z,69.00
2023-05-22T08:54:27.804Z,79.38
2023-05-22T08:55:27.890Z,91.33
2023-05-22T08:56:29.670Z,106.56
2023-05-22T08:57:27.996Z,117.57
2023-05-22T08:58:28.045Z,132.26
2023-05-22T08:59:28.072Z,136.14
2023-05-22T09:00:28.196Z,143.14
2023-05-22T09:01:28.315Z,153.51
2023-05-22T09:02:28.282Z,153.44
2023-05-22T09:03:28.361Z,156.76
2023-05-22T09:04:28.428Z,159.15
2023-05-22T09:05:28.398Z,155.74
2023-05-22T09:06:28.400Z,159.42
2023-05-22T09:07:28.454Z,158.50
2023-05-22T09:08:28.489Z,155.95
2023-05-22T09:09:28.475Z,159.29
2023-05-22T09:10:28.501Z,163.42
2023-05-22T09:11:28.773Z,167.98
2023-05-22T09:12:28.509Z,171.72
2023-05-22T09:13:28.636Z,169.39
2023-05-22T09:14:28.565Z,169.69
2023-05-22T09:15:28.555Z,171.51
2023-05-22T09:16:28.608Z,176.96
2023-05-22T09:17:28.625Z,171.00
2023-05-22T09:18:28.636Z,170.79
2023-05-22T09:19:28.634Z,168.15
2023-05-22T09:20:28.577Z,175.46
2023-05-22T09:21:30.470Z,179.20
2023-05-22T09:22:28.632Z,178.57
2023-05-22T09:23:28.588Z,179.47
2023-05-22T09:24:28.554Z,170.57
2023-05-22T09:25:28.630Z,165.80
2023-05-22T09:26:28.614Z,162.15
2023-05-22T09:27:28.658Z,166.53
2023-05-22T09:28:28.693Z,166.94
2023-05-22T09:29:28.759Z,173.10
2023-05-22T09:30:28.837Z,171.50
2023-05-22T09:31:28.966Z,163.71
2023-05-22T09:32:28.978Z,167.34
2023-05-22T09:33:28.995Z,172.83
2023-05-22T09:34:29.064Z,170.90
2023-05-22T09:35:29.119Z,170.77
2023-05-22T09:36:29.202Z,175.45
2023-05-22T09:37:29.206Z,172.92
2023-05-22T09:38:29.286Z,171.66
2023-05-22T09:39:29.368Z,170.31
2023-05-22T09:40:29.410Z,176.06
2023-05-22T09:41:29.743Z,165.10
2023-05-22T09:42:29.538Z,152.21
2023-05-22T09:43:29.577Z,149.13
2023-05-22T09:44:29.638Z,152.35
2023-05-22T09:45:29.700Z,160.28
2023-05-22T09:46:29.801Z,164.10
2023-05-22T09:47:29.837Z,166.54
2023-05-22T09:48:29.845Z,170.79
2023-05-22T09:49:29.898Z,179.52
2023-05-22T09:50:29.944Z,188.14
2023-05-22T09:51:30.333Z,196.76
2023-05-22T09:52:30.034Z,195.00
2023-05-22T09:53:30.126Z,199.02
2023-05-22T09:54:30.126Z,192.60
2023-05-22T09:55:30.157Z,195.35
2023-05-22T09:56:38.684Z,205.02
2023-05-22T09:57:31.248Z,204.59
2023-05-22T09:58:30.305Z,203.46
2023-05-22T09:59:30.287Z,203.71
2023-05-22T10:00:30.207Z,205.67
2023-05-22T10:01:30.363Z,212.60
2023-05-22T10:02:30.264Z,213.75
2023-05-22T10:03:30.197Z,212.83
2023-05-22T10:04:30.204Z,203.39
2023-05-22T10:05:30.177Z,208.47
2023-05-22T10:06:30.219Z,209.31
2023-05-22T10:07:30.161Z,213.80
2023-05-22T10:08:30.181Z,216.64
2023-05-22T10:09:30.137Z,215.99
2023-05-22T10:10:30.132Z,218.08
2023-05-22T10:11:30.250Z,212.65
2023-05-22T10:12:30.157Z,205.52
2023-05-22T10:13:30.205Z,214.12
2023-05-22T10:14:31.012Z,209.62
2023-05-22T10:15:30.254Z,206.51
2023-05-22T10:16:30.485Z,204.70
2023-05-22T10:17:30.465Z,193.17
2023-05-22T10:18:30.405Z,201.98
2023-05-22T10:19:30.545Z,205.55
2023-05-22T10:20:30.511Z,201.93
2023-05-22T10:21:30.469Z,189.99
2023-05-22T10:22:30.477Z,194.55
2023-05-22T10:23:30.521Z,187.37
2023-05-22T10:24:30.519Z,190.98
2023-05-22T10:25:30.575Z,184.77
2023-05-22T10:26:30.600Z,183.79
2023-05-22T10:27:30.596Z,184.98
2023-05-22T10:28:30.685Z,180.76
2023-05-22T10:29:30.678Z,169.48
2023-05-22T10:30:30.703Z,171.67
2023-05-22T10:31:30.750Z,170.18
2023-05-22T10:32:30.811Z,167.57
2023-05-22T10:33:30.952Z,171.37
2023-05-22T10:34:30.843Z,177.04
2023-05-22T10:35:30.870Z,189.65
2023-05-22T10:36:31.284Z,194.38
2023-05-22T10:37:30.920Z,205.48
2023-05-22T10:38:30.918Z,211.11
2023-05-22T10:39:30.967Z,185.01
2023-05-22T10:40:31.002Z,188.98
2023-05-22T10:41:31.331Z,198.99
2023-05-22T10:42:31.038Z,187.34
2023-05-22T10:43:31.050Z,180.43
2023-05-22T10:44:31.155Z,168.66
2023-05-22T10:45:31.178Z,170.61
2023-05-22T10:46:31.455Z,179.08
2023-05-22T10:47:31.123Z,184.69
2023-05-22T10:48:31.175Z,192.71
2023-05-22T10:49:31.336Z,191.16
2023-05-22T10:50:31.216Z,183.85
2023-05-22T10:51:31.228Z,182.67
2023-05-22T10:52:31.361Z,184.47
2023-05-22T10:53:31.315Z,181.21
2023-05-22T10:54:31.318Z,183.90
2023-05-22T10:55:31.314Z,182.67
2023-05-22T10:56:31.333Z,174.28
2023-05-22T10:57:31.865Z,174.65
2023-05-22T10:58:31.394Z,171.87
2023-05-22T10:59:31.385Z,160.72
2023-05-22T11:00:31.487Z,154.22
2023-05-22T11:01:31.545Z,156.41
2023-05-22T11:02:31.945Z,138.06
2023-05-22T11:03:31.522Z,132.37
2023-05-22T11:04:31.537Z,123.76
2023-05-22T11:05:31.581Z,133.88
2023-05-22T11:06:31.572Z,147.00
2023-05-22T11:07:31.549Z,151.08
2023-05-22T11:08:31.521Z,146.02
2023-05-22T11:09:31.583Z,149.77
2023-05-22T11:10:31.553Z,123.36
2023-05-22T11:11:31.590Z,130.12
2023-05-22T11:12:31.861Z,129.13
2023-05-22T11:13:31.596Z,121.40
2023-05-22T11:14:31.602Z,123.09
2023-05-22T11:15:31.603Z,129.38
2023-05-22T11:16:31.641Z,129.05
2023-05-22T11:17:31.901Z,97.05
2023-05-22T11:18:31.648Z,93.62
2023-05-22T11:19:31.735Z,67.96
2023-05-22T11:20:31.633Z,72.99
2023-05-22T11:21:31.737Z,52.84
2023-05-22T11:22:31.820Z,28.46
2023-05-22T11:23:31.652Z,25.06
2023-05-22T11:24:31.691Z,29.86
2023-05-22T11:25:31.681Z,30.06
2023-05-22T11:26:31.729Z,46.96
2023-05-22T11:27:31.805Z,47.11
2023-05-22T11:28:31.722Z,45.98
2023-05-22T11:29:31.728Z,21.61
2023-05-22T11:30:31.723Z,2.05
2023-05-22T11:31:31.811Z,2.67
2023-05-22T11:32:31.859Z,11.85
2023-05-22T11:33:31.715Z,25.26
2023-05-22T11:34:31.715Z,28.86
2023-05-22T11:35:31.746Z,32.29
2023-05-22T11:36:31.764Z,34.45
2023-05-22T11:37:31.871Z,31.66
2023-05-22T11:38:31.829Z,29.60
2023-05-22T11:39:31.794Z,29.01
2023-05-22T11:40:31.801Z,30.32
2023-05-22T11:41:33.442Z,17.11
2023-05-22T11:42:31.908Z,22.75
2023-05-22T11:43:31.912Z,28.27
2023-05-22T11:44:31.941Z,27.03
2023-05-22T11:45:31.977Z,26.12
2023-05-22T11:46:32.166Z,29.01
2023-05-22T11:47:32.403Z,32.50
2023-05-22T11:48:32.109Z,26.85
2023-05-22T11:49:32.174Z,25.00
2023-05-22T11:50:41.824Z,28.60
2023-05-22T11:51:33.247Z,28.61
2023-05-22T11:52:32.307Z,29.13
2023-05-22T11:53:32.293Z,29.61
2023-05-22T11:54:32.191Z,28.84
2023-05-22T11:55:32.160Z,25.59
2023-05-22T11:56:32.154Z,26.22
2023-05-22T11:57:32.175Z,27.86
2023-05-22T11:58:32.173Z,27.17
2023-05-22T11:59:32.127Z,30.56
2023-05-22T12:00:32.224Z,30.87
2023-05-22T12:01:32.141Z,29.73
2023-05-22T12:02:32.264Z,30.68
2023-05-22T12:03:32.367Z,30.75
2023-05-22T12:04:32.310Z,34.16
2023-05-22T12:05:32.415Z,32.33
2023-05-22T12:06:32.492Z,34.53
2023-05-22T12:07:32.556Z,35.06
2023-05-22T12:08:32.583Z,41.15
2023-05-22T12:09:32.700Z,42.77
2023-05-22T12:10:32.694Z,41.75
2023-05-22T12:11:32.767Z,42.23
2023-05-22T12:12:32.817Z,45.02
2023-05-22T12:13:32.824Z,46.61
2023-05-22T12:14:32.868Z,45.72
2023-05-22T12:15:32.889Z,47.76
2023-05-22T12:16:32.991Z,47.72
2023-05-22T12:17:33.009Z,49.88
2023-05-22T12:18:33.008Z,45.85
2023-05-22T12:19:33.081Z,30.44
2023-05-22T12:20:33.029Z,24.10
2023-05-22T12:21:33.058Z,26.14
2023-05-22T12:22:33.118Z,25.00
2023-05-22T12:23:33.131Z,25.58
2023-05-22T12:24:33.166Z,29.85
2023-05-22T12:25:33.266Z,34.84
2023-05-22T12:26:33.235Z,32.42
2023-05-22T12:27:34.494Z,31.72
2023-05-22T12:28:33.273Z,28.09
2023-05-22T12:29:33.298Z,27.13
2023-05-22T12:30:33.280Z,29.35
2023-05-22T12:31:33.299Z,29.99
2023-05-22T12:32:33.287Z,31.36